Time;durP1;ratioP1;P1;durP2;ratioP2;P2;SDS_P1;SDS_P2;PMS_P1;PMS_P2;Temp;Humidity;BMP_temperature;BMP_pressure;BME280_temperature;BME280_humidity;BME280_pressure;Samples;Min_cycle;Max_cycle;Signal;HPM_P1;HPM_P2
2023/05/25 00:00:48;;;;;;;0.80;0.60;;;10.70;99.90;;;;;;5114911;28;20549;-86
2023/05/25 00:03:15;;;;;;;1.00;0.90;;;10.80;99.90;;;;;;5114862;28;20454;-86
2023/05/25 00:05:42;;;;;;;1.73;0.83;;;10.80;99.90;;;;;;5114556;28;20486;-85
2023/05/25 00:08:08;;;;;;;3.20;0.80;;;10.80;99.90;;;;;;5114530;28;20444;-84
2023/05/25 00:10:37;;;;;;;1.20;0.90;;;10.90;99.90;;;;;;5114318;28;20479;-84
2023/05/25 00:13:03;;;;;;;3.27;0.93;;;11.00;99.90;;;;;;5114616;27;20466;-84
2023/05/25 00:15:30;;;;;;;0.50;0.43;;;10.90;99.90;;;;;;5114441;28;20470;-84
2023/05/25 00:17:57;;;;;;;0.77;0.77;;;10.90;99.90;;;;;;5114084;28;20475;-84
2023/05/25 00:20:24;;;;;;;1.00;0.83;;;10.80;99.90;;;;;;5114304;28;20442;-84
2023/05/25 00:22:51;;;;;;;4.03;0.80;;;10.80;99.90;;;;;;5114336;28;20447;-84
2023/05/25 00:25:19;;;;;;;1.60;0.67;;;10.80;99.90;;;;;;5114178;28;20471;-84
2023/05/25 00:27:47;;;;;;;0.73;0.50;;;10.70;99.90;;;;;;5114165;28;20443;-84
2023/05/25 00:30:14;;;;;;;2.00;1.13;;;10.70;99.90;;;;;;5114482;28;20483;-85
2023/05/25 00:32:41;;;;;;;3.70;0.70;;;10.80;99.90;;;;;;5114313;28;20444;-84
2023/05/25 00:35:09;;;;;;;1.40;1.23;;;10.70;99.90;;;;;;5113974;28;20810;-83
2023/05/25 00:37:35;;;;;;;1.13;1.00;;;10.70;99.90;;;;;;5114136;28;20447;-84
2023/05/25 00:40:03;;;;;;;1.17;0.83;;;10.70;99.90;;;;;;5113974;28;20446;-85
2023/05/25 00:42:30;;;;;;;2.83;0.90;;;10.60;99.90;;;;;;5113992;28;20443;-84
2023/05/25 00:44:58;;;;;;;2.13;0.53;;;10.60;99.90;;;;;;5113975;28;20455;-84
2023/05/25 00:47:26;;;;;;;3.93;0.80;;;10.60;99.90;;;;;;5113616;28;20942;-84
2023/05/25 00:49:52;;;;;;;1.27;0.73;;;10.60;99.90;;;;;;5113806;28;20562;-84
2023/05/25 00:52:19;;;;;;;0.80;0.70;;;10.60;99.90;;;;;;5113996;28;20438;-84
2023/05/25 00:54:51;;;;;;;2.20;0.60;;;10.50;99.90;;;;;;5113749;28;20471;-84
2023/05/25 00:57:21;;;;;;;1.27;0.60;;;10.60;99.90;;;;;;5117904;28;20421;-84
2023/05/25 00:59:51;;;;;;;1.73;0.60;;;10.50;99.90;;;;;;5118288;28;20448;-84
2023/05/25 01:02:20;;;;;;;0.53;0.53;;;10.50;99.90;;;;;;5118062;28;20427;-84
2023/05/25 01:04:51;;;;;;;0.80;0.53;;;10.60;99.90;;;;;;5118048;27;20474;-84
2023/05/25 01:07:24;;;;;;;7.83;0.80;;;10.60;99.90;;;;;;5117904;28;20915;-83
2023/05/25 01:10:02;;;;;;;0.87;0.87;;;10.60;99.90;;;;;;5127714;28;20525;-83
2023/05/25 01:12:29;;;;;;;1.33;0.87;;;10.60;99.90;;;;;;5117875;28;20423;-83
2023/05/25 01:14:57;;;;;;;1.20;0.73;;;10.60;99.90;;;;;;5117808;28;20478;-84
2023/05/25 01:17:27;;;;;;;1.00;0.60;;;10.60;99.90;;;;;;5117874;27;20478;-83
2023/05/25 01:19:57;;;;;;;3.37;0.83;;;10.60;99.90;;;;;;5117776;28;20423;-84
2023/05/25 01:22:28;;;;;;;1.57;0.70;;;10.50;99.90;;;;;;5117593;28;20447;-83
2023/05/25 01:25:01;;;;;;;4.73;0.60;;;10.50;99.90;;;;;;5117572;28;20467;-84
2023/05/25 01:27:37;;;;;;;0.60;0.60;;;10.50;99.90;;;;;;5117268;28;20442;-84
2023/05/25 01:30:07;;;;;;;5.03;1.53;;;10.40;99.90;;;;;;5117446;28;20835;-83
2023/05/25 01:32:36;;;;;;;1.17;0.80;;;10.40;99.90;;;;;;5117759;28;20432;-83
2023/05/25 01:35:03;;;;;;;7.50;1.00;;;10.30;99.90;;;;;;5117401;28;20471;-84
2023/05/25 01:37:32;;;;;;;1.10;1.00;;;10.30;99.90;;;;;;5117377;28;20428;-84
2023/05/25 01:39:58;;;;;;;1.43;0.80;;;10.20;99.90;;;;;;5117339;28;20889;-84
2023/05/25 01:42:25;;;;;;;1.53;0.60;;;10.20;99.90;;;;;;5117341;28;20809;-84
2023/05/25 01:44:52;;;;;;;0.70;0.70;;;10.20;99.90;;;;;;5117201;28;20999;-84
2023/05/25 01:47:24;;;;;;;6.93;1.17;;;10.10;99.90;;;;;;5116834;28;21060;-84
2023/05/25 01:49:58;;;;;;;9.70;0.70;;;10.10;99.90;;;;;;5117084;28;20888;-84
2023/05/25 01:52:29;;;;;;;2.00;1.10;;;10.10;99.90;;;;;;5117194;28;20428;-84
2023/05/25 01:55:02;;;;;;;1.10;0.63;;;10.10;99.90;;;;;;5117011;28;20472;-84
2023/05/25 01:57:29;;;;;;;1.07;0.83;;;10.00;99.90;;;;;;5117048;28;20855;-84
2023/05/25 01:59:59;;;;;;;1.40;0.70;;;10.00;99.90;;;;;;5116953;28;20447;-83
2023/05/25 02:02:27;;;;;;;2.00;0.80;;;10.00;99.90;;;;;;5116935;28;20446;-84
2023/05/25 02:04:55;;;;;;;3.47;1.40;;;10.00;99.90;;;;;;5116815;28;20464;-84
2023/05/25 02:07:23;;;;;;;1.73;0.87;;;9.90;99.90;;;;;;5116800;28;20443;-84
2023/05/25 02:09:49;;;;;;;2.50;0.93;;;10.00;99.90;;;;;;5116731;28;20476;-84
2023/05/25 02:12:18;;;;;;;5.40;0.90;;;10.00;99.90;;;;;;5116769;28;20454;-83
2023/05/25 02:14:47;;;;;;;2.63;1.10;;;10.00;99.90;;;;;;5125964;27;20447;-83
2023/05/25 02:17:16;;;;;;;3.47;0.80;;;10.00;99.90;;;;;;5116499;28;20471;-84
2023/05/25 02:19:43;;;;;;;0.80;0.70;;;10.00;99.90;;;;;;5116630;28;20505;-84
2023/05/25 02:22:10;;;;;;;2.20;0.60;;;9.90;99.90;;;;;;5116609;28;20443;-84
2023/05/25 02:24:36;;;;;;;0.63;0.63;;;9.90;99.90;;;;;;5116391;28;20471;-83
2023/05/25 02:27:04;;;;;;;1.17;0.90;;;9.90;99.90;;;;;;5116457;28;20477;-84
2023/05/25 02:29:32;;;;;;;2.90;0.77;;;9.90;99.90;;;;;;5116354;28;20447;-83
2023/05/25 02:31:58;;;;;;;4.60;0.97;;;9.90;99.90;;;;;;5116393;28;20443;-83
2023/05/25 02:34:25;;;;;;;1.43;0.87;;;9.80;99.90;;;;;;5116338;28;20464;-84
2023/05/25 02:36:52;;;;;;;1.37;0.80;;;9.80;99.90;;;;;;5116380;28;20424;-83
2023/05/25 02:39:19;;;;;;;0.77;0.77;;;9.80;99.90;;;;;;5116272;28;20451;-84
2023/05/25 02:41:45;;;;;;;6.93;0.77;;;9.80;99.90;;;;;;5116131;28;20534;-84
2023/05/25 02:44:12;;;;;;;1.07;0.73;;;9.80;99.90;;;;;;5116143;28;20471;-84
2023/05/25 02:46:40;;;;;;;1.20;0.90;;;9.80;99.90;;;;;;5116258;27;20918;-83
2023/05/25 02:49:07;;;;;;;0.80;0.70;;;9.80;99.90;;;;;;5116056;28;20444;-84
2023/05/25 02:51:34;;;;;;;3.57;1.13;;;9.80;99.90;;;;;;5115885;28;20484;-84
2023/05/25 02:54:01;;;;;;;1.53;0.83;;;9.80;99.90;;;;;;5115860;28;20837;-84
2023/05/25 02:56:28;;;;;;;1.30;0.80;;;9.80;99.90;;;;;;5115606;28;20444;-84
2023/05/25 02:58:55;;;;;;;4.63;1.53;;;9.70;99.90;;;;;;5115902;28;20804;-84
2023/05/25 03:01:24;;;;;;;3.77;0.90;;;9.70;99.90;;;;;;5115765;27;20458;-84
2023/05/25 03:03:52;;;;;;;1.43;0.77;;;9.60;99.90;;;;;;5115798;28;20463;-84
2023/05/25 03:06:20;;;;;;;1.57;1.30;;;9.70;99.90;;;;;;5115305;28;20938;-83
2023/05/25 03:08:47;;;;;;;1.07;0.97;;;9.60;99.90;;;;;;5115683;28;20493;-84
2023/05/25 03:11:13;;;;;;;2.13;0.70;;;9.60;99.90;;;;;;5115259;28;21010;-84
2023/05/25 03:13:41;;;;;;;0.90;0.90;;;9.50;99.90;;;;;;5115746;28;20454;-83
2023/05/25 03:16:08;;;;;;;1.30;0.57;;;9.50;99.90;;;;;;5115584;28;20444;-83
2023/05/25 03:18:34;;;;;;;6.33;1.00;;;9.50;99.90;;;;;;5114636;28;20482;-84
2023/05/25 03:21:03;;;;;;;0.70;0.53;;;9.50;99.90;;;;;;5115328;28;20954;-84
2023/05/25 03:23:29;;;;;;;1.57;0.80;;;9.50;99.90;;;;;;5114892;28;20454;-83
2023/05/25 03:25:56;;;;;;;1.73;1.00;;;9.40;99.90;;;;;;5115113;28;20435;-84
2023/05/25 03:28:23;;;;;;;1.67;0.87;;;9.40;99.90;;;;;;5115501;28;20456;-84
2023/05/25 03:30:50;;;;;;;1.13;1.00;;;9.40;99.90;;;;;;5115038;27;20837;-83
2023/05/25 03:33:17;;;;;;;1.03;0.80;;;9.40;99.90;;;;;;5115232;28;20448;-84
2023/05/25 03:35:43;;;;;;;0.87;0.50;;;9.30;99.90;;;;;;5115017;28;20510;-84
2023/05/25 03:38:12;;;;;;;1.47;0.80;;;9.30;99.90;;;;;;5114697;28;20965;-84
2023/05/25 03:40:38;;;;;;;1.70;1.10;;;9.30;99.90;;;;;;5114977;27;20463;-84
2023/05/25 03:43:05;;;;;;;2.83;0.73;;;9.30;99.90;;;;;;5114676;28;20961;-83
2023/05/25 03:45:32;;;;;;;0.80;0.70;;;9.30;99.90;;;;;;5114868;28;20466;-84
2023/05/25 03:47:58;;;;;;;2.53;1.27;;;9.30;99.90;;;;;;5114908;28;20448;-83
2023/05/25 03:50:25;;;;;;;4.70;1.90;;;9.30;99.90;;;;;;5114819;28;20487;-83
2023/05/25 03:52:52;;;;;;;4.13;0.97;;;9.30;99.90;;;;;;5114725;28;20454;-84
2023/05/25 03:55:20;;;;;;;1.93;1.10;;;9.30;99.90;;;;;;5114426;28;20452;-83
2023/05/25 03:57:47;;;;;;;1.10;0.70;;;9.30;99.90;;;;;;5114406;28;20931;-84
2023/05/25 04:00:15;;;;;;;13.57;1.17;;;9.30;99.90;;;;;;5114327;28;20977;-84
2023/05/25 04:02:42;;;;;;;0.60;0.60;;;9.30;99.90;;;;;;5114578;28;20859;-84
2023/05/25 04:05:09;;;;;;;1.00;0.90;;;9.20;99.90;;;;;;5114490;28;20464;-83
2023/05/25 04:07:36;;;;;;;2.47;0.97;;;9.20;99.90;;;;;;5114477;28;20470;-84
2023/05/25 04:10:03;;;;;;;1.47;0.97;;;9.30;99.90;;;;;;5114424;28;20450;-83
2023/05/25 04:12:32;;;;;;;0.50;0.50;;;9.20;99.90;;;;;;5114445;28;20541;-84
2023/05/25 04:14:58;;;;;;;2.00;0.67;;;9.30;99.90;;;;;;5114075;28;21082;-83
2023/05/25 04:17:25;;;;;;;0.70;0.50;;;9.30;99.90;;;;;;5114414;28;20475;-84
2023/05/25 04:19:52;;;;;;;1.50;1.10;;;9.30;99.90;;;;;;5114315;28;20443;-84
2023/05/25 04:22:19;;;;;;;0.90;0.80;;;9.40;99.90;;;;;;5114317;27;20465;-84
2023/05/25 04:24:46;;;;;;;1.63;1.23;;;9.40;99.90;;;;;;5114026;28;20971;-84
2023/05/25 04:27:14;;;;;;;0.87;0.80;;;9.50;99.90;;;;;;5114166;28;20432;-83
2023/05/25 04:29:42;;;;;;;0.60;0.60;;;9.60;99.90;;;;;;5113167;28;20454;-84
2023/05/25 04:32:09;;;;;;;1.73;0.90;;;9.70;99.90;;;;;;5113883;28;20487;-84
2023/05/25 04:34:36;;;;;;;9.80;1.03;;;9.80;99.90;;;;;;5114075;28;20464;-84
2023/05/25 04:37:04;;;;;;;1.50;1.03;;;9.90;99.90;;;;;;5114024;28;20824;-85
2023/05/25 04:39:32;;;;;;;1.33;0.63;;;10.00;99.90;;;;;;5113966;28;20502;-84
2023/05/25 04:42:00;;;;;;;1.63;0.93;;;10.10;99.90;;;;;;5114028;28;20440;-84
2023/05/25 04:44:28;;;;;;;1.60;1.50;;;10.10;99.90;;;;;;5113882;28;20468;-84
2023/05/25 04:46:58;;;;;;;2.63;1.23;;;10.10;99.90;;;;;;5113713;28;20447;-84
2023/05/25 04:49:25;;;;;;;0.80;0.80;;;10.10;99.90;;;;;;5113955;28;20452;-84
2023/05/25 04:51:52;;;;;;;1.07;0.93;;;10.20;99.90;;;;;;5113895;28;20486;-84
2023/05/25 04:54:18;;;;;;;1.70;1.60;;;10.20;99.90;;;;;;5113886;28;20851;-84
2023/05/25 04:56:45;;;;;;;1.37;0.70;;;10.20;99.90;;;;;;5113995;28;20466;-84
2023/05/25 04:59:12;;;;;;;1.57;0.80;;;10.20;99.90;;;;;;5113547;28;20439;-84
2023/05/25 05:01:39;;;;;;;1.70;1.33;;;10.30;99.90;;;;;;5113497;28;20436;-84
2023/05/25 05:04:08;;;;;;;1.37;1.30;;;10.30;99.90;;;;;;5113847;28;20463;-84
2023/05/25 05:06:35;;;;;;;1.27;1.13;;;10.40;99.90;;;;;;5113815;28;20439;-84
2023/05/25 05:09:02;;;;;;;2.30;1.83;;;10.50;99.90;;;;;;5113685;28;20456;-84
2023/05/25 05:11:29;;;;;;;2.13;1.10;;;10.50;99.90;;;;;;5113746;28;20475;-85
2023/05/25 05:13:57;;;;;;;1.30;1.20;;;10.60;99.90;;;;;;5113454;28;20472;-85
2023/05/25 05:16:24;;;;;;;2.37;1.07;;;10.70;99.90;;;;;;5113686;28;20471;-84
2023/05/25 05:18:51;;;;;;;3.13;1.10;;;10.80;99.90;;;;;;5113142;28;20494;-84
2023/05/25 05:21:19;;;;;;;3.40;1.20;;;10.80;99.90;;;;;;5113641;28;20447;-84
2023/05/25 05:23:46;;;;;;;4.60;2.07;;;10.90;99.90;;;;;;5113605;28;20576;-84
2023/05/25 05:26:14;;;;;;;3.00;1.50;;;11.00;99.90;;;;;;5113662;28;20436;-84
2023/05/25 05:28:40;;;;;;;2.10;1.23;;;11.10;99.90;;;;;;5113565;28;20448;-84
2023/05/25 05:31:07;;;;;;;3.33;1.80;;;11.20;99.90;;;;;;5113204;28;20476;-85
2023/05/25 05:33:34;;;;;;;2.80;1.20;;;11.30;99.90;;;;;;5113419;28;20447;-84
2023/05/25 05:36:01;;;;;;;1.30;0.90;;;11.40;99.90;;;;;;5113484;28;20450;-84
2023/05/25 05:38:29;;;;;;;2.30;1.30;;;11.40;99.90;;;;;;5113702;28;20505;-84
2023/05/25 05:40:56;;;;;;;4.10;1.30;;;11.40;99.90;;;;;;5113830;28;20432;-84
2023/05/25 05:43:23;;;;;;;1.10;0.90;;;11.50;99.90;;;;;;5117192;28;20451;-84
2023/05/25 05:45:49;;;;;;;1.83;1.03;;;11.60;99.90;;;;;;5117146;27;20482;-85
2023/05/25 05:48:16;;;;;;;7.63;1.57;;;11.70;99.90;;;;;;5117336;28;20442;-84
2023/05/25 05:50:43;;;;;;;2.03;1.80;;;11.70;99.90;;;;;;5117248;28;20479;-85
2023/05/25 05:53:10;;;;;;;3.70;1.33;;;11.90;99.90;;;;;;5116970;28;20946;-84
2023/05/25 05:55:38;;;;;;;8.07;1.47;;;12.00;99.90;;;;;;5117449;27;20463;-85
2023/05/25 05:58:05;;;;;;;2.77;1.03;;;12.20;99.90;;;;;;5117148;28;20447;-84
2023/05/25 06:00:31;;;;;;;3.43;0.80;;;12.40;99.90;;;;;;5116697;28;20962;-85
2023/05/25 06:02:59;;;;;;;1.57;1.33;;;12.50;99.90;;;;;;5116610;28;20927;-85
2023/05/25 06:05:25;;;;;;;1.90;1.50;;;12.60;99.90;;;;;;5117044;28;20464;-83
2023/05/25 06:07:52;;;;;;;4.13;1.63;;;12.70;99.90;;;;;;5116864;28;20458;-85
2023/05/25 06:10:19;;;;;;;1.30;1.10;;;13.00;99.90;;;;;;5116809;28;20439;-84
2023/05/25 06:12:47;;;;;;;7.80;1.63;;;13.10;99.90;;;;;;5116807;28;20502;-84
2023/05/25 06:15:14;;;;;;;3.37;1.50;;;13.20;99.90;;;;;;5116428;28;20483;-84
2023/05/25 06:17:42;;;;;;;3.77;1.60;;;13.30;99.90;;;;;;5116526;28;20470;-84
2023/05/25 06:20:09;;;;;;;2.87;1.20;;;13.40;99.90;;;;;;5116574;28;20436;-85
2023/05/25 06:22:36;;;;;;;9.93;1.70;;;13.50;99.90;;;;;;5116371;28;20447;-86
2023/05/25 06:25:04;;;;;;;2.10;1.03;;;13.60;99.90;;;;;;5116186;28;21003;-84
2023/05/25 06:27:30;;;;;;;2.50;2.00;;;13.60;99.90;;;;;;5116399;28;20447;-84
2023/05/25 06:29:58;;;;;;;1.70;1.60;;;13.60;99.90;;;;;;5116492;28;20439;-84
2023/05/25 06:32:28;;;;;;;3.23;1.90;;;13.70;99.90;;;;;;5116082;28;20462;-83
2023/05/25 06:34:55;;;;;;;4.13;1.60;;;13.90;99.90;;;;;;5116066;28;21004;-84
2023/05/25 06:37:22;;;;;;;3.53;1.90;;;14.30;99.90;;;;;;5116262;28;20821;-84
2023/05/25 06:39:48;;;;;;;2.90;1.80;;;14.60;99.90;;;;;;5115984;27;20452;-83
2023/05/25 06:42:15;;;;;;;6.10;1.87;;;14.80;99.90;;;;;;5116274;28;20424;-85
2023/05/25 06:44:42;;;;;;;3.43;1.67;;;14.90;99.90;;;;;;5116099;28;21010;-84
2023/05/25 06:47:10;;;;;;;11.00;1.93;;;15.00;99.90;;;;;;5116038;28;20452;-84
2023/05/25 06:49:47;;;;;;;1.57;1.30;;;15.30;99.90;;;;;;5115765;28;20454;-84
2023/05/25 06:52:14;;;;;;;3.70;2.00;;;15.60;99.90;;;;;;5115467;28;21036;-85
2023/05/25 06:54:41;;;;;;;2.50;1.93;;;15.80;99.90;;;;;;5115011;28;20467;-84
2023/05/25 06:57:07;;;;;;;5.53;2.13;;;16.10;99.90;;;;;;5115560;28;20965;-84
2023/05/25 06:59:34;;;;;;;5.90;1.93;;;16.20;99.90;;;;;;5115508;27;20827;-83
2023/05/25 07:02:01;;;;;;;1.73;1.50;;;16.40;99.90;;;;;;5116511;27;20517;-84
2023/05/25 07:04:29;;;;;;;2.53;2.30;;;16.50;99.90;;;;;;5115374;28;20463;-84
2023/05/25 07:06:56;;;;;;;5.40;1.27;;;16.60;99.90;;;;;;5115722;28;20447;-84
2023/05/25 07:09:22;;;;;;;11.43;2.40;;;16.80;99.90;;;;;;5115377;28;20970;-84
2023/05/25 07:11:49;;;;;;;2.37;2.03;;;16.80;99.90;;;;;;5115505;28;20479;-85
2023/05/25 07:14:17;;;;;;;1.77;1.47;;;16.80;99.90;;;;;;5115454;28;20467;-84
2023/05/25 07:16:44;;;;;;;2.27;2.00;;;16.60;99.90;;;;;;5115226;27;20451;-84
2023/05/25 07:19:11;;;;;;;5.33;2.00;;;16.40;99.90;;;;;;5115455;28;20443;-83
2023/05/25 07:21:39;;;;;;;1.60;1.50;;;16.10;99.90;;;;;;5115597;28;20449;-83
2023/05/25 07:24:06;;;;;;;3.10;2.00;;;15.80;99.90;;;;;;5115089;28;20496;-84
2023/05/25 07:26:35;;;;;;;4.63;1.73;;;15.70;99.90;;;;;;5114963;28;21025;-84
2023/05/25 07:29:02;;;;;;;2.87;1.80;;;15.40;99.90;;;;;;5115233;28;20447;-83
2023/05/25 07:31:28;;;;;;;2.40;1.63;;;15.20;99.90;;;;;;5115077;28;20483;-84
2023/05/25 07:33:55;;;;;;;12.40;2.50;;;15.20;99.90;;;;;;5114743;28;20975;-85
2023/05/25 07:36:23;;;;;;;5.00;3.40;;;15.20;99.90;;;;;;5115004;28;20521;-85
2023/05/25 07:38:51;;;;;;;4.77;2.23;;;15.20;99.90;;;;;;5115102;28;20432;-83
2023/05/25 07:41:18;;;;;;;2.93;1.70;;;15.00;99.90;;;;;;5115006;28;20431;-83
2023/05/25 07:43:45;;;;;;;2.30;1.63;;;15.00;99.90;;;;;;5114849;28;20454;-84
2023/05/25 07:46:12;;;;;;;4.27;2.20;;;14.90;99.90;;;;;;5114892;28;20456;-83
2023/05/25 07:48:39;;;;;;;3.27;1.50;;;14.80;99.90;;;;;;5114485;28;20826;-83
2023/05/25 07:51:06;;;;;;;1.90;1.67;;;14.80;99.90;;;;;;5114454;28;20428;-83
2023/05/25 07:53:32;;;;;;;5.73;1.93;;;14.80;99.90;;;;;;5114746;28;20447;-84
2023/05/25 07:56:00;;;;;;;1.73;1.60;;;14.80;99.90;;;;;;5114327;28;20942;-83
2023/05/25 07:58:27;;;;;;;8.23;1.87;;;14.80;99.90;;;;;;5114481;28;20436;-84
2023/05/25 08:00:54;;;;;;;2.20;1.50;;;15.00;99.90;;;;;;5114564;28;20481;-83
2023/05/25 08:03:21;;;;;;;7.40;2.50;;;15.50;99.90;;;;;;5114549;28;20446;-84
2023/05/25 08:05:48;;;;;;;5.67;2.07;;;16.00;99.90;;;;;;5114271;28;20475;-84
2023/05/25 08:08:15;;;;;;;3.60;2.03;;;16.90;99.90;;;;;;5114361;28;20465;-84
2023/05/25 08:10:42;;;;;;;4.03;2.13;;;18.30;99.90;;;;;;5115470;28;20461;-85
2023/05/25 08:13:10;;;;;;;2.17;1.97;;;19.10;99.90;;;;;;5114583;28;20532;-84
2023/05/25 08:15:37;;;;;;;2.70;2.47;;;19.60;99.90;;;;;;5114383;28;20471;-83
2023/05/25 08:18:04;;;;;;;4.17;2.03;;;19.60;99.90;;;;;;5113877;28;20990;-84
2023/05/25 08:20:31;;;;;;;5.20;2.17;;;19.50;99.90;;;;;;5114269;28;20954;-84
2023/05/25 08:22:58;;;;;;;2.07;1.60;;;19.60;99.90;;;;;;5114372;28;20487;-84
2023/05/25 08:25:25;;;;;;;4.03;2.10;;;19.70;99.90;;;;;;5114361;28;20471;-83
2023/05/25 08:27:51;;;;;;;2.40;1.97;;;19.80;99.90;;;;;;5114344;28;20447;-84
2023/05/25 08:30:19;;;;;;;6.80;2.90;;;19.90;99.90;;;;;;5114128;28;20438;-83
2023/05/25 08:32:46;;;;;;;4.80;2.07;;;20.10;99.90;;;;;;5114025;28;20478;-84
2023/05/25 08:35:13;;;;;;;4.30;1.97;;;20.40;99.90;;;;;;5113822;28;20455;-84
2023/05/25 08:37:42;;;;;;;3.63;2.67;;;20.60;99.90;;;;;;5113778;27;20442;-83
2023/05/25 08:40:14;;;;;;;3.60;2.30;;;20.50;99.90;;;;;;5114340;28;20446;-83
2023/05/25 08:42:42;;;;;;;4.10;2.50;;;20.20;99.90;;;;;;5114049;28;20420;-84
2023/05/25 08:45:09;;;;;;;2.47;1.93;;;20.20;99.90;;;;;;5113900;28;20463;-83
2023/05/25 08:47:41;;;;;;;2.70;2.00;;;20.00;99.90;;;;;;5114189;28;20445;-84
2023/05/25 08:50:09;;;;;;;4.20;2.20;;;19.80;99.90;;;;;;5114006;28;20439;-83
2023/05/25 08:52:38;;;;;;;3.13;2.30;;;19.60;99.90;;;;;;5113843;28;20851;-83
2023/05/25 08:55:08;;;;;;;2.63;2.40;;;19.40;99.90;;;;;;5114562;28;20558;-82
2023/05/25 08:57:43;;;;;;;7.40;3.53;;;19.30;99.90;;;;;;5114358;28;20447;-84
2023/05/25 09:00:14;;;;;;;7.90;2.80;;;19.50;99.90;;;;;;5114087;28;20435;-84
2023/05/25 09:02:50;;;;;;;2.30;2.10;;;19.70;99.90;;;;;;5113823;28;20795;-84
2023/05/25 09:05:17;;;;;;;3.70;2.23;;;19.90;99.90;;;;;;5114077;28;20454;-85
2023/05/25 09:07:44;;;;;;;7.70;3.03;;;20.20;99.90;;;;;;5114354;28;20477;-85
2023/05/25 09:10:12;;;;;;;3.10;2.80;;;20.40;99.90;;;;;;5113781;28;20453;-85
2023/05/25 09:12:42;;;;;;;9.70;2.87;;;20.40;99.90;;;;;;5113510;28;20514;-84
2023/05/25 09:15:11;;;;;;;6.17;2.40;;;20.30;99.90;;;;;;5113701;28;20460;-85
2023/05/25 09:17:38;;;;;;;4.97;3.07;;;20.10;99.90;;;;;;5117324;28;20478;-84
2023/05/25 09:20:08;;;;;;;3.10;2.03;;;19.90;99.90;;;;;;5117981;28;20946;-82
2023/05/25 09:22:35;;;;;;;7.07;2.73;;;19.80;99.90;;;;;;5117684;28;20797;-84
2023/05/25 09:25:06;;;;;;;5.00;2.87;;;19.60;99.90;;;;;;5117587;28;20459;-83
2023/05/25 09:27:35;;;;;;;3.63;2.30;;;19.70;99.90;;;;;;5117690;28;20428;-83
2023/05/25 09:30:03;;;;;;;3.27;2.20;;;19.50;99.90;;;;;;5118092;27;20477;-84
2023/05/25 09:32:30;;;;;;;5.20;2.60;;;19.50;99.90;;;;;;5117127;27;20479;-83
2023/05/25 09:35:08;;;;;;;6.10;3.23;;;19.40;99.90;;;;;;5117410;28;20471;-83
2023/05/25 09:37:36;;;;;;;6.60;3.17;;;19.40;99.90;;;;;;5117509;28;20427;-83
2023/05/25 09:40:04;;;;;;;3.87;2.17;;;19.10;99.90;;;;;;5117379;28;20448;-83
2023/05/25 09:42:31;;;;;;;5.97;3.00;;;19.20;99.90;;;;;;5117294;28;20990;-83
2023/05/25 09:44:58;;;;;;;5.27;2.50;;;19.40;99.90;;;;;;5117161;28;20463;-81
2023/05/25 09:47:25;;;;;;;3.67;2.40;;;19.30;99.90;;;;;;5117301;28;20918;-87
2023/05/25 09:49:56;;;;;;;12.17;3.23;;;19.10;99.90;;;;;;5117199;27;20885;-82
2023/05/25 09:52:24;;;;;;;7.77;2.50;;;18.90;99.90;;;;;;5117031;28;20480;-83
2023/05/25 09:54:52;;;;;;;5.43;2.10;;;18.90;99.90;;;;;;5116784;28;20479;-83
2023/05/25 09:57:20;;;;;;;3.27;2.40;;;18.80;99.90;;;;;;5116987;28;20447;-82
2023/05/25 09:59:47;;;;;;;5.47;2.80;;;18.80;99.90;;;;;;5116716;28;20454;-83
2023/05/25 10:02:14;;;;;;;4.17;2.93;;;19.00;99.90;;;;;;5117303;28;20451;-82
2023/05/25 10:04:41;;;;;;;7.17;2.90;;;19.30;99.90;;;;;;5116453;28;20990;-82
2023/05/25 10:07:08;;;;;;;6.47;3.00;;;19.40;99.90;;;;;;5116892;28;20803;-82
2023/05/25 10:09:41;;;;;;;6.57;2.30;;;19.50;99.90;;;;;;5116538;28;20427;-84
2023/05/25 10:12:08;;;;;;;4.20;3.07;;;19.50;99.90;;;;;;5116743;28;20476;-83
2023/05/25 10:14:37;;;;;;;3.70;2.47;;;19.30;99.90;;;;;;5116645;28;20464;-83
2023/05/25 10:17:05;;;;;;;5.63;3.63;;;19.10;99.90;;;;;;5116410;28;20467;-83
2023/05/25 10:19:36;;;;;;;4.63;2.60;;;19.00;99.90;;;;;;5116659;28;20480;-85
2023/05/25 10:22:08;;;;;;;2.43;1.97;;;19.20;99.90;;;;;;5116310;28;20423;-82
2023/05/25 10:24:43;;;;;;;4.60;2.60;;;19.30;99.90;;;;;;5116452;28;20478;-83
2023/05/25 10:27:19;;;;;;;13.63;4.37;;;19.30;99.90;;;;;;5115865;28;20476;-83
2023/05/25 10:29:48;;;;;;;4.20;2.57;;;19.20;99.90;;;;;;5115379;28;20488;-81
2023/05/25 10:32:16;;;;;;;12.80;2.93;;;19.20;99.90;;;;;;5116315;28;20479;-81
2023/05/25 10:34:43;;;;;;;6.30;3.23;;;19.10;99.90;;;;;;5116267;28;20463;-82
2023/05/25 10:37:10;;;;;;;9.47;2.67;;;19.10;99.90;;;;;;5116313;28;20447;-82
2023/05/25 10:39:38;;;;;;;4.13;2.30;;;19.20;99.90;;;;;;5116257;28;20447;-82
2023/05/25 10:42:06;;;;;;;9.77;3.27;;;19.20;99.90;;;;;;5116206;28;20448;-82
2023/05/25 10:44:34;;;;;;;4.33;2.47;;;19.30;99.90;;;;;;5116012;28;20459;-82
2023/05/25 10:47:00;;;;;;;4.10;2.80;;;19.40;99.90;;;;;;5115759;28;20958;-79
2023/05/25 10:49:32;;;;;;;8.50;2.90;;;19.60;99.90;;;;;;5116059;28;20444;-84
2023/05/25 10:52:00;;;;;;;3.33;2.87;;;19.70;99.90;;;;;;5116026;28;20431;-83
2023/05/25 10:54:30;;;;;;;4.90;2.43;;;19.70;99.90;;;;;;5115689;28;20991;-84
2023/05/25 10:57:20;;;;;;;4.03;2.00;;;19.70;99.90;;;;;;5115649;28;20915;-84
2023/05/25 10:59:51;;;;;;;3.33;2.83;;;19.70;99.90;;;;;;5111338;27;20455;-84
2023/05/25 11:02:21;;;;;;;3.60;2.30;;;19.70;99.90;;;;;;5115733;28;20987;-85
2023/05/25 11:04:49;;;;;;;2.37;2.17;;;19.70;99.90;;;;;;5115663;28;20467;-85
2023/05/25 11:07:18;;;;;;;4.80;2.93;;;19.70;99.90;;;;;;5115724;28;20867;-86
2023/05/25 11:09:57;;;;;;;2.97;2.60;;;19.60;99.90;;;;;;5116338;28;20447;-84
2023/05/25 11:12:26;;;;;;;4.17;2.63;;;19.50;99.90;;;;;;5116263;28;20474;-85
2023/05/25 11:15:17;;;;;;;5.23;3.20;;;19.50;99.90;;;;;;5118639;28;20478;-84
2023/05/25 11:17:45;;;;;;;3.23;2.30;;;19.50;99.90;;;;;;5115344;28;20505;-81
2023/05/25 11:20:22;;;;;;;5.03;2.37;;;19.60;99.90;;;;;;5115529;28;20439;-84
2023/05/25 11:22:50;;;;;;;2.47;2.00;;;19.60;99.90;;;;;;5115131;28;20838;-82
2023/05/25 11:25:35;;;;;;;4.47;2.80;;;19.60;99.90;;;;;;5115231;28;20463;-83
2023/05/25 11:28:05;;;;;;;3.23;2.33;;;19.70;99.90;;;;;;5115023;27;20907;-83
2023/05/25 11:30:32;;;;;;;2.47;1.87;;;19.70;99.90;;;;;;5115227;28;20446;-83
2023/05/25 11:33:01;;;;;;;6.43;2.33;;;19.80;99.90;;;;;;5114810;28;20529;-84
2023/05/25 11:35:28;;;;;;;3.80;2.80;;;19.70;99.90;;;;;;5114750;28;20463;-83
2023/05/25 11:37:55;;;;;;;4.30;3.90;;;19.70;99.90;;;;;;5114755;28;20447;-83
2023/05/25 11:40:23;;;;;;;3.23;2.00;;;19.70;99.90;;;;;;5114664;28;20451;-84
2023/05/25 11:42:52;;;;;;;6.10;2.90;;;19.80;99.90;;;;;;5115094;28;20791;-83
2023/05/25 11:45:22;;;;;;;2.90;2.60;;;19.70;99.90;;;;;;5114512;28;20464;-83
2023/05/25 11:47:48;;;;;;;7.13;2.53;;;19.70;99.90;;;;;;5114893;28;20450;-83
2023/05/25 11:50:15;;;;;;;6.07;2.80;;;19.70;99.90;;;;;;5114839;28;20435;-83
2023/05/25 11:52:42;;;;;;;2.70;2.50;;;19.70;99.90;;;;;;5114379;28;20510;-84
2023/05/25 11:55:13;;;;;;;4.30;2.23;;;19.70;99.90;;;;;;5114694;28;20468;-84
2023/05/25 11:57:40;;;;;;;2.57;2.20;;;19.70;99.90;;;;;;5114730;28;20442;-83
2023/05/25 12:00:10;;;;;;;2.63;1.93;;;19.60;99.90;;;;;;5114698;28;20860;-84
2023/05/25 12:02:39;;;;;;;3.50;2.10;;;19.50;99.90;;;;;;5114281;28;20439;-83
2023/05/25 12:05:07;;;;;;;5.90;2.37;;;19.60;99.90;;;;;;5114582;28;20471;-84
2023/05/25 12:07:35;;;;;;;3.70;2.73;;;19.80;99.90;;;;;;5114495;28;20853;-84
2023/05/25 12:10:06;;;;;;;3.57;2.63;;;19.90;99.90;;;;;;5114475;28;20451;-83
2023/05/25 12:12:42;;;;;;;2.37;2.20;;;20.00;99.90;;;;;;5114350;28;20448;-84
2023/05/25 12:15:11;;;;;;;5.80;2.93;;;20.00;99.90;;;;;;5114438;28;20463;-84
2023/05/25 12:17:41;;;;;;;2.60;2.27;;;20.20;99.90;;;;;;5113995;28;20536;-83
2023/05/25 12:20:10;;;;;;;4.20;2.20;;;20.30;99.90;;;;;;5114392;27;20503;-84
2023/05/25 12:22:38;;;;;;;4.67;2.80;;;20.30;99.90;;;;;;5114045;28;20835;-84
2023/05/25 12:25:06;;;;;;;2.43;2.10;;;20.40;99.90;;;;;;5114112;28;20474;-85
2023/05/25 12:27:34;;;;;;;3.53;2.20;;;20.30;99.90;;;;;;5114158;28;20821;-84
2023/05/25 12:30:00;;;;;;;3.90;2.40;;;20.30;99.90;;;;;;5113874;28;20449;-84
2023/05/25 12:32:27;;;;;;;3.70;3.20;;;20.30;99.90;;;;;;5113769;28;20451;-84
2023/05/25 12:35:04;;;;;;;2.23;2.03;;;20.30;99.90;;;;;;5114004;28;20471;-84
2023/05/25 12:37:31;;;;;;;4.70;2.57;;;20.30;99.90;;;;;;5114109;28;20438;-82
2023/05/25 12:39:57;;;;;;;3.57;2.37;;;20.40;99.90;;;;;;5114020;28;20447;-83
2023/05/25 12:42:26;;;;;;;5.70;3.07;;;20.50;99.90;;;;;;5113959;28;20447;-83
2023/05/25 12:44:57;;;;;;;2.70;2.00;;;20.60;99.90;;;;;;5113969;28;20470;-83
2023/05/25 12:47:27;;;;;;;3.43;2.13;;;20.50;99.90;;;;;;5113990;28;20439;-83
2023/05/25 12:50:09;;;;;;;3.67;2.43;;;20.40;99.90;;;;;;5114357;28;20549;-82
2023/05/25 12:52:39;;;;;;;6.33;3.03;;;20.30;99.90;;;;;;5112829;28;20934;-83